Time;durP1;ratioP1;P1;durP2;ratioP2;P2;SDS_P1;SDS_P2;PMS_P1;PMS_P2;Temp;Humidity;BMP_temperature;BMP_pressure;BME280_temperature;BME280_humidity;BME280_pressure;Samples;Min_cycle;Max_cycle;Signal;HPM_P1;HPM_P2
2022/09/12 00:03:19;;;;;;;11.70;7.90;;;13.80;99.90;;;;;;8282329;28;20226;-68
2022/09/12 00:07:20;;;;;;;9.03;8.10;;;13.80;99.90;;;;;;8303786;28;20217;-67
2022/09/12 00:11:21;;;;;;;12.23;8.47;;;13.90;99.90;;;;;;8301638;28;20217;-68
2022/09/12 00:15:22;;;;;;;9.60;7.80;;;13.90;99.90;;;;;;8296714;28;20218;-67
2022/09/12 00:19:23;;;;;;;9.17;7.70;;;13.90;99.90;;;;;;8300054;28;20194;-67
2022/09/12 00:23:24;;;;;;;9.00;7.17;;;13.90;99.90;;;;;;8280962;28;20197;-68
2022/09/12 00:27:25;;;;;;;9.37;8.07;;;13.90;99.90;;;;;;8283815;28;20279;-67
2022/09/12 00:31:26;;;;;;;9.93;7.33;;;13.80;99.90;;;;;;8285930;28;20191;-67
2022/09/12 00:35:27;;;;;;;9.50;7.93;;;13.80;99.90;;;;;;8292676;28;20260;-68
2022/09/12 00:39:27;;;;;;;8.57;7.20;;;13.70;99.90;;;;;;8297824;28;20245;-67
2022/09/12 00:43:31;;;;;;;12.57;7.80;;;13.70;99.90;;;;;;8287507;28;20556;-68
2022/09/12 00:47:35;;;;;;;8.07;7.27;;;13.70;99.90;;;;;;8299990;28;20183;-68
2022/09/12 00:51:36;;;;;;;9.53;7.87;;;13.60;99.90;;;;;;8298961;28;20187;-68
2022/09/12 00:55:42;;;;;;;9.77;7.43;;;13.60;99.90;;;;;;8280701;28;20210;-68
2022/09/12 00:59:49;;;;;;;8.90;7.30;;;13.50;99.90;;;;;;8287371;28;20270;-68
2022/09/12 01:03:50;;;;;;;10.20;7.50;;;13.50;99.90;;;;;;8295457;28;20191;-68
2022/09/12 01:07:52;;;;;;;9.00;7.80;;;13.40;99.90;;;;;;8283802;28;20187;-68
2022/09/12 01:11:53;;;;;;;9.17;6.93;;;13.40;99.90;;;;;;8299687;28;20202;-69
2022/09/12 01:15:55;;;;;;;9.83;8.30;;;13.40;99.90;;;;;;8296191;28;20236;-68
2022/09/12 01:20:02;;;;;;;10.70;8.47;;;13.40;99.90;;;;;;8298702;28;20186;-69
2022/09/12 01:24:21;;;;;;;11.40;8.60;;;13.40;99.90;;;;;;8294008;28;20187;-67
2022/09/12 01:28:46;;;;;;;10.90;9.20;;;13.40;99.90;;;;;;8284468;28;20217;-68
2022/09/12 01:33:10;;;;;;;11.43;8.90;;;13.40;99.90;;;;;;8298345;28;20245;-68
2022/09/12 01:37:41;;;;;;;14.27;9.23;;;13.40;99.90;;;;;;8296891;28;20191;-67
2022/09/12 01:41:54;;;;;;;11.67;9.13;;;13.40;99.90;;;;;;8297224;28;20255;-67
2022/09/12 01:46:09;;;;;;;10.80;9.60;;;13.30;99.90;;;;;;8287584;28;20217;-68
2022/09/12 01:50:17;;;;;;;13.27;9.67;;;13.30;99.90;;;;;;8285566;28;20241;-68
2022/09/12 01:54:34;;;;;;;10.23;9.10;;;13.30;99.90;;;;;;8287041;28;20237;-69
2022/09/12 01:58:53;;;;;;;10.83;9.10;;;13.20;99.90;;;;;;8297874;28;20194;-68
2022/09/12 02:03:19;;;;;;;11.57;8.57;;;13.10;99.90;;;;;;8295860;28;20179;-68
2022/09/12 02:08:06;;;;;;;11.67;9.20;;;13.00;99.90;;;;;;8297509;28;20188;-68
2022/09/12 02:12:10;;;;;;;11.07;8.50;;;12.90;99.90;;;;;;8166796;28;20257;-68
2022/09/12 02:16:23;;;;;;;13.17;8.63;;;12.80;99.90;;;;;;8229807;28;20254;-68
2022/09/12 02:20:29;;;;;;;7.80;7.00;;;12.80;99.90;;;;;;8282748;28;20214;-68
2022/09/12 02:24:38;;;;;;;8.97;7.77;;;12.70;99.90;;;;;;8299692;28;20186;-69
2022/09/12 02:28:43;;;;;;;10.73;8.60;;;12.60;99.90;;;;;;8305749;28;20182;-68
2022/09/12 02:33:02;;;;;;;8.47;7.53;;;12.60;99.90;;;;;;8287615;28;20179;-68
2022/09/12 02:37:17;;;;;;;9.90;8.60;;;12.60;99.90;;;;;;8287122;28;20221;-68
2022/09/12 02:41:20;;;;;;;11.17;9.57;;;12.50;99.90;;;;;;8288665;28;20180;-69
2022/09/12 02:45:22;;;;;;;9.73;8.57;;;12.50;99.90;;;;;;8291388;28;20183;-69
2022/09/12 02:49:24;;;;;;;11.67;8.23;;;12.50;99.90;;;;;;8286136;28;20186;-68
2022/09/12 02:53:26;;;;;;;16.77;10.00;;;12.60;99.90;;;;;;8286965;28;20217;-69
2022/09/12 02:57:27;;;;;;;10.67;9.10;;;12.60;99.90;;;;;;8290063;28;20187;-68
2022/09/12 03:01:40;;;;;;;14.07;10.10;;;12.50;99.90;;;;;;8291510;28;20183;-69
2022/09/12 03:05:58;;;;;;;10.37;9.03;;;12.50;99.90;;;;;;8292178;28;20197;-69
2022/09/12 03:10:30;;;;;;;12.60;9.50;;;12.40;99.90;;;;;;8305853;28;20179;-69
2022/09/12 03:14:50;;;;;;;13.33;10.77;;;12.30;99.90;;;;;;8284357;28;20233;-69
2022/09/12 03:19:15;;;;;;;14.60;10.87;;;12.30;99.90;;;;;;8289003;28;20180;-74
2022/09/12 03:23:37;;;;;;;15.30;12.20;;;12.30;99.90;;;;;;8302628;28;20186;-69
2022/09/12 03:27:59;;;;;;;17.07;11.73;;;12.30;99.90;;;;;;8289896;28;20277;-68
2022/09/12 03:32:00;;;;;;;17.87;12.97;;;12.30;99.90;;;;;;8290851;28;20187;-68
2022/09/12 03:36:01;;;;;;;20.37;14.00;;;12.40;99.90;;;;;;8291775;28;20211;-68
2022/09/12 03:40:04;;;;;;;23.03;14.80;;;12.50;99.90;;;;;;8305706;28;20183;-69
2022/09/12 03:44:05;;;;;;;24.53;15.80;;;12.60;99.90;;;;;;8285136;28;20278;-69
2022/09/12 03:48:06;;;;;;;30.93;16.50;;;12.60;99.90;;;;;;8302976;28;20186;-69
2022/09/12 03:52:07;;;;;;;42.37;15.90;;;12.60;99.90;;;;;;8288683;28;20532;-69
2022/09/12 03:56:09;;;;;;;48.27;16.27;;;12.60;99.90;;;;;;8282606;28;20221;-69
2022/09/12 04:00:11;;;;;;;53.73;15.87;;;12.60;99.90;;;;;;8284201;28;20187;-69
2022/09/12 04:04:12;;;;;;;57.23;15.93;;;12.60;99.90;;;;;;8296881;28;20187;-69
2022/09/12 04:08:13;;;;;;;30.80;14.40;;;12.60;99.90;;;;;;8302061;28;20269;-68
2022/09/12 04:12:14;;;;;;;39.80;14.90;;;12.60;99.90;;;;;;8298452;28;20301;-68
2022/09/12 04:16:16;;;;;;;25.17;14.17;;;12.60;99.90;;;;;;8285589;28;20393;-69
2022/09/12 04:20:18;;;;;;;45.90;16.43;;;12.60;99.90;;;;;;8299415;28;20189;-69
2022/09/12 04:24:18;;;;;;;43.80;16.03;;;12.60;99.90;;;;;;8297405;28;20229;-68
2022/09/12 04:28:20;;;;;;;37.47;15.17;;;12.60;99.90;;;;;;8283074;28;20199;-69
2022/09/12 04:32:21;;;;;;;32.87;16.33;;;12.60;99.90;;;;;;8285245;28;20183;-68
2022/09/12 04:36:23;;;;;;;43.73;15.57;;;12.50;99.90;;;;;;8285598;28;20231;-69
2022/09/12 04:40:24;;;;;;;38.37;14.77;;;12.50;99.90;;;;;;8285560;28;20183;-68
2022/09/12 04:44:24;;;;;;;35.33;14.93;;;12.50;99.90;;;;;;8286329;28;20182;-72
2022/09/12 04:48:25;;;;;;;38.87;16.27;;;12.50;99.90;;;;;;8299093;28;20187;-68
2022/09/12 04:52:26;;;;;;;37.40;15.17;;;12.50;99.90;;;;;;8298231;28;20270;-69
2022/09/12 04:56:28;;;;;;;35.47;15.07;;;12.50;99.90;;;;;;8297242;28;20219;-69
2022/09/12 05:00:29;;;;;;;46.90;15.23;;;12.50;99.90;;;;;;8289141;28;20184;-68
2022/09/12 05:04:30;;;;;;;29.20;14.17;;;12.60;99.90;;;;;;8285029;28;20440;-69
2022/09/12 05:08:31;;;;;;;31.97;14.13;;;12.50;99.90;;;;;;8285831;28;20218;-68
2022/09/12 05:12:32;;;;;;;32.87;14.00;;;12.60;99.90;;;;;;8281487;28;20239;-69
2022/09/12 05:16:33;;;;;;;32.77;14.30;;;12.50;99.90;;;;;;8292923;28;20206;-69
2022/09/12 05:20:35;;;;;;;25.17;13.43;;;12.60;99.90;;;;;;8295121;28;20178;-69
2022/09/12 05:24:38;;;;;;;21.43;11.93;;;12.70;99.90;;;;;;8295816;28;20236;-67
2022/09/12 05:28:39;;;;;;;25.53;12.47;;;12.70;99.90;;;;;;8295037;28;20589;-68
2022/09/12 05:32:40;;;;;;;22.70;12.70;;;12.80;99.90;;;;;;8294111;28;20229;-68
2022/09/12 05:36:41;;;;;;;28.77;13.17;;;12.80;99.90;;;;;;8300031;28;20183;-68
2022/09/12 05:40:41;;;;;;;29.03;13.97;;;12.80;99.90;;;;;;8298360;28;20314;-68
2022/09/12 05:44:42;;;;;;;26.00;13.33;;;12.80;99.90;;;;;;8286426;28;20261;-68
2022/09/12 05:48:45;;;;;;;25.47;14.47;;;12.70;99.90;;;;;;8295163;28;20229;-68
2022/09/12 05:52:46;;;;;;;26.57;13.60;;;12.70;99.90;;;;;;8284574;28;20193;-67
2022/09/12 05:56:47;;;;;;;25.87;13.53;;;12.70;99.90;;;;;;8296753;28;20179;-67
2022/09/12 06:00:49;;;;;;;20.93;13.20;;;12.70;99.90;;;;;;8289457;28;20194;-67
2022/09/12 06:04:54;;;;;;;24.23;13.43;;;12.70;99.90;;;;;;8288021;28;20192;-68
2022/09/12 06:09:03;;;;;;;27.40;13.57;;;12.80;99.90;;;;;;8302444;28;20190;-68
2022/09/12 06:13:04;;;;;;;21.63;12.60;;;12.90;99.90;;;;;;8305520;28;20222;-68
2022/09/12 06:17:05;;;;;;;20.37;12.90;;;13.00;99.90;;;;;;8288345;28;20183;-68
2022/09/12 06:21:09;;;;;;;20.60;12.73;;;13.10;99.90;;;;;;8284515;28;20283;-68
2022/09/12 06:25:10;;;;;;;20.23;12.83;;;13.20;99.90;;;;;;8302501;28;20212;-68
2022/09/12 06:29:11;;;;;;;17.90;12.47;;;13.40;99.90;;;;;;8285316;28;20190;-68
2022/09/12 06:33:12;;;;;;;19.20;13.10;;;13.40;99.90;;;;;;8289357;28;20214;-68
2022/09/12 06:37:13;;;;;;;19.47;13.20;;;13.50;99.90;;;;;;8292320;28;20186;-68
2022/09/12 06:41:17;;;;;;;20.30;12.87;;;13.70;99.90;;;;;;8301678;28;20182;-70
2022/09/12 06:45:18;;;;;;;17.10;12.40;;;14.00;99.90;;;;;;8285271;28;20210;-69
2022/09/12 06:49:19;;;;;;;16.80;12.47;;;14.30;99.90;;;;;;8287246;28;20187;-68
2022/09/12 06:53:20;;;;;;;13.93;10.80;;;14.40;99.90;;;;;;8286720;28;20210;-68
2022/09/12 06:57:23;;;;;;;13.70;11.33;;;14.50;99.90;;;;;;8284541;28;20190;-69
2022/09/12 07:01:25;;;;;;;12.30;9.87;;;14.70;99.90;;;;;;8303237;28;20187;-68
2022/09/12 07:05:26;;;;;;;14.43;10.73;;;14.80;99.90;;;;;;8283989;28;20210;-68
2022/09/12 07:09:29;;;;;;;12.80;10.03;;;15.20;99.90;;;;;;8303432;28;20206;-68
2022/09/12 07:13:30;;;;;;;13.33;10.43;;;15.30;99.90;;;;;;8303502;28;20215;-68
2022/09/12 07:17:31;;;;;;;14.10;11.23;;;15.30;99.90;;;;;;8289484;28;20262;-70
2022/09/12 07:21:35;;;;;;;14.03;11.00;;;15.50;99.90;;;;;;8289163;28;20213;-68
2022/09/12 07:25:36;;;;;;;13.07;10.40;;;15.60;99.90;;;;;;8302163;28;20250;-69
2022/09/12 07:29:37;;;;;;;14.27;10.60;;;15.70;99.90;;;;;;8300300;28;20182;-69
2022/09/12 07:33:40;;;;;;;15.60;10.60;;;15.60;99.90;;;;;;8285814;28;20470;-68
2022/09/12 07:37:44;;;;;;;12.13;9.87;;;15.70;99.90;;;;;;8286688;28;20179;-68
2022/09/12 07:41:44;;;;;;;10.07;9.03;;;15.80;99.90;;;;;;8285650;28;20186;-67
2022/09/12 07:45:45;;;;;;;14.57;9.87;;;16.00;99.90;;;;;;8299556;28;20195;-68
2022/09/12 07:49:49;;;;;;;13.60;10.57;;;15.90;99.90;;;;;;8304879;28;20251;-68
2022/09/12 07:53:50;;;;;;;11.23;9.97;;;15.80;99.90;;;;;;8290387;28;20213;-73
2022/09/12 07:57:51;;;;;;;11.60;9.67;;;15.80;99.90;;;;;;8289422;28;20195;-69
2022/09/12 08:01:52;;;;;;;11.30;8.73;;;15.90;99.90;;;;;;8301477;28;20191;-69
2022/09/12 08:05:53;;;;;;;9.30;7.23;;;16.20;99.90;;;;;;8284482;28;20187;-68
2022/09/12 08:09:54;;;;;;;9.43;8.43;;;16.20;99.90;;;;;;8298637;28;20193;-70
2022/09/12 08:13:56;;;;;;;7.33;6.63;;;16.60;99.90;;;;;;8298067;28;20301;-69
2022/09/12 08:17:57;;;;;;;8.50;6.67;;;17.10;99.90;;;;;;8302973;28;20187;-70
2022/09/12 08:21:57;;;;;;;9.90;6.70;;;17.20;99.90;;;;;;8301436;28;20179;-69
2022/09/12 08:26:01;;;;;;;7.63;5.80;;;17.30;99.90;;;;;;8283599;28;20190;-69
2022/09/12 08:30:05;;;;;;;6.10;5.20;;;17.50;99.90;;;;;;8302347;28;20186;-69
2022/09/12 08:34:06;;;;;;;7.63;5.77;;;17.20;1.00;;;;;;8287325;28;20201;-69
2022/09/12 08:38:07;;;;;;;6.10;5.47;;;16.90;1.00;;;;;;8305034;28;20289;-69
2022/09/12 08:42:16;;;;;;;6.80;5.60;;;16.90;44.80;;;;;;8287733;28;20183;-69
2022/09/12 08:46:32;;;;;;;4.37;3.93;;;17.60;1.00;;;;;;8298902;28;20256;-68
2022/09/12 08:50:32;;;;;;;5.17;4.60;;;18.10;94.90;;;;;;8296060;28;20202;-69
2022/09/12 08:54:33;;;;;;;4.80;4.33;;;17.70;98.30;;;;;;8289565;28;20503;-68
2022/09/12 08:58:39;;;;;;;4.40;3.90;;;17.40;99.90;;;;;;8282583;28;20627;-70
2022/09/12 09:03:00;;;;;;;4.63;4.23;;;17.50;90.70;;;;;;8286535;28;20183;-70
2022/09/12 09:07:35;;;;;;;6.13;3.90;;;18.20;99.90;;;;;;8287029;28;20195;-70
2022/09/12 09:12:08;;;;;;;3.00;2.70;;;18.90;1.00;;;;;;8282269;28;20385;-68
2022/09/12 09:16:31;;;;;;;4.47;3.17;;;18.30;1.00;;;;;;8293737;28;20226;-69
2022/09/12 09:20:41;;;;;;;4.90;3.93;;;17.80;1.00;;;;;;8284394;28;20187;-69
2022/09/12 09:24:49;;;;;;;3.93;3.07;;;18.00;76.40;;;;;;8299436;28;20182;-70
2022/09/12 09:28:56;;;;;;;3.60;3.10;;;18.20;1.00;;;;;;8297033;28;20190;-70
2022/09/12 09:33:02;;;;;;;4.07;3.67;;;18.40;1.00;;;;;;8300949;28;20194;-68
2022/09/12 09:37:18;;;;;;;4.27;2.70;;;18.50;99.90;;;;;;8307075;28;20243;-69
2022/09/12 09:41:51;;;;;;;5.37;3.17;;;18.40;1.00;;;;;;8289536;28;20217;-69
2022/09/12 09:45:52;;;;;;;3.03;2.73;;;17.90;1.00;;;;;;8289274;28;20259;-69
2022/09/12 09:49:53;;;;;;;2.97;2.67;;;18.20;1.00;;;;;;8302345;28;20256;-69
2022/09/12 09:54:01;;;;;;;3.27;2.80;;;18.40;99.90;;;;;;8290275;28;20265;-68
2022/09/12 09:58:03;;;;;;;3.53;3.10;;;18.60;99.90;;;;;;8306224;28;20319;-68
2022/09/12 10:02:13;;;;;;;2.80;2.57;;;18.70;99.90;;;;;;8287580;28;20207;-69
2022/09/12 10:06:22;;;;;;;3.20;2.70;;;18.90;99.90;;;;;;8291731;28;20194;-69
2022/09/12 10:10:24;;;;;;;3.80;2.63;;;19.00;99.90;;;;;;8305345;28;20214;-68
2022/09/12 10:14:36;;;;;;;3.57;2.73;;;18.90;99.90;;;;;;8295851;28;20217;-68
2022/09/12 10:18:42;;;;;;;4.17;2.63;;;18.70;99.90;;;;;;8287342;28;20193;-69
2022/09/12 10:22:46;;;;;;;2.63;2.30;;;18.50;99.90;;;;;;8303783;28;20183;-68
2022/09/12 10:27:17;;;;;;;3.10;2.40;;;18.30;99.90;;;;;;8303264;28;20186;-69
2022/09/12 10:31:30;;;;;;;2.90;2.37;;;17.90;1.00;;;;;;8278816;28;20191;-68
2022/09/12 10:35:43;;;;;;;3.63;2.50;;;17.80;1.00;;;;;;8291963;28;20218;-69
2022/09/12 10:39:55;;;;;;;5.23;2.53;;;17.70;1.00;;;;;;8292295;28;20183;-69
2022/09/12 10:44:26;;;;;;;2.30;2.10;;;17.60;1.00;;;;;;8302571;28;20237;-69
2022/09/12 10:48:31;;;;;;;2.23;2.03;;;17.80;99.90;;;;;;8304093;28;20189;-69
2022/09/12 10:52:32;;;;;;;2.50;2.00;;;18.30;99.90;;;;;;8292297;28;20190;-69
2022/09/12 10:56:47;;;;;;;3.63;2.23;;;19.10;99.90;;;;;;8304505;28;20598;-70
2022/09/12 11:00:57;;;;;;;2.53;1.93;;;20.00;99.90;;;;;;8286979;28;20182;-69
2022/09/12 11:04:58;;;;;;;2.10;1.77;;;20.60;99.90;;;;;;8301021;28;20185;-70
2022/09/12 11:09:08;;;;;;;2.67;1.90;;;21.00;99.90;;;;;;8303827;28;20214;-69
2022/09/12 11:13:18;;;;;;;2.13;1.93;;;21.40;99.90;;;;;;8298476;28;20270;-69
2022/09/12 11:17:34;;;;;;;2.07;1.63;;;21.80;96.40;;;;;;8286117;28;20185;-68
2022/09/12 11:21:59;;;;;;;2.40;1.70;;;21.70;62.30;;;;;;8286876;28;20244;-70
2022/09/12 11:26:20;;;;;;;1.30;1.20;;;21.70;83.20;;;;;;8293230;28;20186;-68
2022/09/12 11:30:21;;;;;;;1.40;1.10;;;21.50;66.80;;;;;;8290062;28;20193;-68
2022/09/12 11:34:33;;;;;;;1.53;1.30;;;20.40;72.50;;;;;;8291708;28;20203;-68
2022/09/12 11:38:51;;;;;;;1.63;1.53;;;19.80;99.90;;;;;;8300521;28;20184;-67
2022/09/12 11:42:55;;;;;;;2.33;1.80;;;19.70;99.90;;;;;;8303585;28;20214;-70
2022/09/12 11:46:57;;;;;;;3.03;1.60;;;19.90;99.90;;;;;;8291080;28;20843;-69
2022/09/12 11:51:05;;;;;;;2.67;1.90;;;20.70;99.90;;;;;;8302298;28;20286;-68
2022/09/12 11:55:18;;;;;;;1.60;1.50;;;21.40;93.00;;;;;;8259567;28;20210;-69
2022/09/12 11:59:39;;;;;;;2.10;1.70;;;21.10;79.40;;;;;;8224606;28;20263;-68
2022/09/12 12:03:45;;;;;;;2.53;1.87;;;21.20;88.80;;;;;;8191840;28;20866;-69
2022/09/12 12:07:51;;;;;;;1.90;1.77;;;20.80;99.90;;;;;;8207117;28;20174;-68
2022/09/12 12:11:56;;;;;;;2.40;1.90;;;20.30;99.80;;;;;;8233167;28;20205;-68
2022/09/12 12:16:02;;;;;;;1.93;1.73;;;20.20;99.90;;;;;;8217391;28;20250;-68
2022/09/12 12:20:19;;;;;;;3.47;1.60;;;20.20;99.90;;;;;;8323656;27;20645;-68
2022/09/12 12:24:21;;;;;;;2.53;2.33;;;20.20;99.90;;;;;;8326700;28;21184;-68
2022/09/12 12:28:40;;;;;;;4.37;2.10;;;20.00;99.90;;;;;;8320386;28;20180;-68
2022/09/12 12:32:41;;;;;;;2.60;2.27;;;19.80;99.90;;;;;;8348366;28;20184;-67
2022/09/12 12:36:49;;;;;;;3.13;2.77;;;19.50;99.90;;;;;;8349297;28;20308;-67
2022/09/12 12:40:50;;;;;;;3.20;2.90;;;19.50;99.90;;;;;;8327617;28;20188;-68
2022/09/12 12:44:50;;;;;;;3.93;3.17;;;19.70;99.90;;;;;;8320202;28;20189;-69
2022/09/12 12:49:23;;;;;;;4.47;2.87;;;20.30;99.90;;;;;;8322484;28;20267;-67
2022/09/12 12:53:26;;;;;;;2.90;2.57;;;20.30;95.30;;;;;;8322881;28;20196;-67
2022/09/12 12:57:34;;;;;;;3.50;2.50;;;20.20;99.90;;;;;;8390565;28;20296;-67
2022/09/12 13:01:39;;;;;;;3.20;2.90;;;20.20;99.90;;;;;;8393875;28;20165;-68
2022/09/12 13:05:45;;;;;;;3.40;3.10;;;20.00;99.90;;;;;;8391100;28;20214;-67
2022/09/12 13:09:51;;;;;;;2.80;2.50;;;20.00;99.90;;;;;;8391154;28;20185;-67
2022/09/12 13:13:59;;;;;;;2.83;2.63;;;20.00;94.00;;;;;;8388171;28;20232;-67
2022/09/12 13:18:10;;;;;;;2.93;2.63;;;20.30;97.70;;;;;;8390263;28;20216;-68
2022/09/12 13:22:11;;;;;;;2.23;1.97;;;20.70;99.90;;;;;;8386542;28;20173;-67
2022/09/12 13:26:21;;;;;;;2.60;2.37;;;20.60;79.50;;;;;;8388539;28;20169;-67
2022/09/12 13:30:21;;;;;;;2.50;2.30;;;20.60;56.40;;;;;;8378716;28;20190;-68
2022/09/12 13:35:04;;;;;;;2.27;1.87;;;20.20;86.00;;;;;;8371121;28;20272;-68
2022/09/12 13:39:10;;;;;;;2.00;1.40;;;20.20;99.90;;;;;;8368734;28;20296;-68
2022/09/12 13:43:20;;;;;;;1.80;1.47;;;20.00;99.90;;;;;;8365077;28;20216;-67
2022/09/12 13:47:30;;;;;;;2.40;2.13;;;19.80;99.90;;;;;;8364322;28;20188;-68
2022/09/12 13:51:31;;;;;;;1.87;1.63;;;19.80;99.90;;;;;;8370982;28;20198;-72
2022/09/12 13:55:39;;;;;;;3.47;2.43;;;19.80;99.90;;;;;;8365588;28;20276;-67
2022/09/12 13:59:43;;;;;;;3.40;2.50;;;19.80;99.90;;;;;;8366287;28;20351;-68
2022/09/12 14:08:14;;;;;;;2.63;1.93;;;20.30;99.90;;;;;;8368180;28;20231;-68
2022/09/12 14:12:20;;;;;;;3.77;2.17;;;20.70;99.90;;;;;;8368900;28;20201;-71
2022/09/12 14:16:24;;;;;;;2.97;2.37;;;21.00;99.90;;;;;;8369710;28;20197;-68
2022/09/12 14:20:31;;;;;;;2.00;1.80;;;21.40;99.90;;;;;;8365670;28;20190;-67
2022/09/12 14:24:31;;;;;;;2.17;1.63;;;21.60;99.90;;;;;;8366752;28;20182;-68
2022/09/12 14:28:34;;;;;;;2.10;1.77;;;21.70;99.90;;;;;;8364888;28;20370;-68
2022/09/12 14:32:35;;;;;;;2.37;1.67;;;21.80;99.90;;;;;;8366178;28;20196;-68
2022/09/12 14:36:50;;;;;;;2.00;1.77;;;22.00;99.90;;;;;;8367720;28;20245;-68
2022/09/12 14:41:04;;;;;;;1.70;1.60;;;22.20;99.90;;;;;;8364432;28;20433;-68
2022/09/12 14:45:24;;;;;;;1.73;1.60;;;22.20;99.90;;;;;;8365339;28;20186;-69
2022/09/12 14:49:34;;;;;;;1.93;1.73;;;22.20;99.90;;;;;;8369459;28;20257;-67
2022/09/12 14:53:36;;;;;;;2.57;2.00;;;22.00;99.90;;;;;;8366233;28;20181;-67
2022/09/12 14:57:39;;;;;;;2.77;2.00;;;21.80;98.50;;;;;;8364632;28;20219;-68
2022/09/12 15:01:40;;;;;;;1.97;1.87;;;21.70;98.40;;;;;;8368011;28;20208;-67
2022/09/12 15:05:48;;;;;;;3.53;2.20;;;21.70;99.90;;;;;;8367382;28;20288;-67
2022/09/12 15:09:49;;;;;;;2.30;1.87;;;21.70;96.20;;;;;;8368760;28;20266;-68
2022/09/12 15:13:50;;;;;;;3.53;2.80;;;21.60;97.80;;;;;;8364088;28;20228;-67
2022/09/12 15:17:51;;;;;;;2.97;2.70;;;21.50;99.60;;;;;;8361610;28;20213;-67
2022/09/12 15:21:52;;;;;;;3.77;2.60;;;21.50;98.10;;;;;;8360817;28;20394;-67
2022/09/12 15:25:53;;;;;;;2.60;2.40;;;21.10;99.90;;;;;;8368209;28;20254;-67
2022/09/12 15:29:53;;;;;;;3.20;2.90;;;20.90;99.90;;;;;;8366303;28;20280;-66
2022/09/12 15:33:58;;;;;;;3.63;2.70;;;20.70;99.90;;;;;;8365171;28;20194;-66
2022/09/12 15:37:58;;;;;;;4.43;3.30;;;20.60;99.90;;;;;;8363244;28;20213;-67
2022/09/12 15:41:59;;;;;;;3.00;2.80;;;20.50;99.90;;;;;;8367424;28;20242;-67
2022/09/12 15:46:05;;;;;;;2.93;2.63;;;20.50;99.90;;;;;;8360558;28;20185;-67
2022/09/12 15:50:06;;;;;;;2.87;2.33;;;20.50;99.90;;;;;;8362197;28;20185;-67
2022/09/12 15:54:11;;;;;;;2.90;2.60;;;20.60;99.90;;;;;;8363014;28;20272;-68
2022/09/12 15:58:12;;;;;;;2.73;2.40;;;20.60;99.90;;;;;;8378214;28;20209;-67
2022/09/12 16:02:13;;;;;;;3.67;2.47;;;20.50;99.90;;;;;;8369378;28;20181;-67
2022/09/12 16:06:14;;;;;;;2.57;2.37;;;20.40;99.90;;;;;;8356391;28;20231;-69
2022/09/12 16:10:17;;;;;;;2.27;2.07;;;20.20;99.90;;;;;;8361272;28;20189;-67
2022/09/12 16:14:19;;;;;;;3.10;2.80;;;20.10;99.90;;;;;;8361775;28;20212;-68
2022/09/12 16:18:19;;;;;;;2.70;2.50;;;19.80;99.90;;;;;;8365962;28;20209;-67
2022/09/12 16:22:20;;;;;;;3.63;2.90;;;19.60;1.00;;;;;;8364319;28;20182;-67
2022/09/12 16:26:21;;;;;;;2.47;2.27;;;19.30;92.60;;;;;;8361671;28;20256;-67
2022/09/12 16:30:22;;;;;;;3.00;2.70;;;19.10;99.90;;;;;;8364303;28;20189;-67
2022/09/12 16:34:23;;;;;;;3.80;2.63;;;18.80;99.90;;;;;;8367045;28;20279;-66
2022/09/12 16:38:24;;;;;;;2.90;2.60;;;18.60;1.00;;;;;;8360587;28;20201;-67
2022/09/12 16:42:25;;;;;;;2.90;2.60;;;18.30;63.10;;;;;;8362296;28;20217;-67
2022/09/12 16:46:27;;;;;;;3.20;2.90;;;18.10;99.90;;;;;;8360269;28;20181;-67
2022/09/12 16:50:29;;;;;;;2.70;2.50;;;18.00;99.90;;;;;;8363538;28;20181;-66
2022/09/12 16:54:30;;;;;;;2.60;2.40;;;17.80;99.90;;;;;;8366509;28;20185;-67
2022/09/12 16:58:38;;;;;;;2.83;2.53;;;17.60;1.00;;;;;;8358100;28;20279;-66
2022/09/12 17:02:39;;;;;;;2.87;2.67;;;17.30;99.90;;;;;;8357585;28;20189;-67
2022/09/12 17:06:41;;;;;;;3.00;2.70;;;17.10;99.90;;;;;;8368299;28;20192;-67
2022/09/12 17:10:42;;;;;;;2.60;2.40;;;16.90;1.00;;;;;;8367898;28;20188;-68
2022/09/12 17:14:42;;;;;;;2.90;2.47;;;16.60;1.00;;;;;;8369257;28;20212;-67
2022/09/12 17:18:43;;;;;;;3.67;2.50;;;16.30;99.90;;;;;;8363764;28;20220;-70
2022/09/12 17:22:44;;;;;;;2.63;2.43;;;16.00;1.00;;;;;;8366850;28;20181;-67
2022/09/12 17:26:45;;;;;;;2.53;2.30;;;15.80;99.90;;;;;;8369920;28;20189;-67
2022/09/12 17:30:53;;;;;;;2.83;2.63;;;15.60;1.00;;;;;;8367363;28;20196;-67
2022/09/12 17:34:54;;;;;;;3.30;3.00;;;15.40;99.90;;;;;;8365283;28;20191;-67
2022/09/12 17:38:58;;;;;;;2.87;2.57;;;15.20;99.90;;;;;;8369287;28;20205;-67
2022/09/12 17:43:00;;;;;;;3.30;2.97;;;15.00;1.80;;;;;;8368788;28;20212;-67
2022/09/12 17:47:02;;;;;;;3.47;3.17;;;14.80;99.90;;;;;;8364308;28;20245;-66
2022/09/12 17:51:08;;;;;;;3.60;2.90;;;14.60;1.00;;;;;;8361884;28;20577;-67
2022/09/12 17:55:11;;;;;;;3.40;3.10;;;14.40;99.90;;;;;;8366693;28;20174;-66
2022/09/12 17:59:17;;;;;;;3.57;3.27;;;14.30;99.90;;;;;;8367550;28;20202;-66
2022/09/12 18:03:22;;;;;;;3.23;2.93;;;14.10;1.00;;;;;;8365113;28;20186;-66
2022/09/12 18:07:23;;;;;;;4.50;3.00;;;14.00;99.90;;;;;;8363275;28;20192;-67
2022/09/12 18:11:24;;;;;;;3.20;2.87;;;13.80;52.30;;;;;;8371351;28;20202;-67
2022/09/12 18:15:25;;;;;;;3.50;3.20;;;13.70;1.00;;;;;;8368296;28;20201;-66
2022/09/12 18:19:27;;;;;;;3.90;3.60;;;13.60;1.00;;;;;;8366027;28;20204;-66
2022/09/12 18:23:28;;;;;;;4.23;3.50;;;13.50;1.00;;;;;;8367937;28;20182;-67
2022/09/12 18:27:29;;;;;;;3.40;3.10;;;13.40;99.90;;;;;;8367091;28;20193;-67
2022/09/12 18:31:30;;;;;;;3.53;3.23;;;13.20;1.00;;;;;;8369416;28;20199;-67
2022/09/12 18:35:31;;;;;;;4.10;3.63;;;13.10;99.90;;;;;;8369300;28;20189;-69
2022/09/12 18:39:32;;;;;;;3.90;3.60;;;13.00;99.90;;;;;;8367847;28;20239;-68
2022/09/12 18:43:33;;;;;;;3.13;2.83;;;12.90;99.90;;;;;;8364533;28;20302;-66
2022/09/12 18:47:34;;;;;;;3.27;2.97;;;12.70;99.90;;;;;;8362430;28;20189;-67
2022/09/12 18:51:36;;;;;;;3.43;3.13;;;12.60;1.00;;;;;;8367129;28;20188;-67
2022/09/12 18:55:37;;;;;;;3.80;3.50;;;12.50;99.90;;;;;;8366442;28;20185;-67
2022/09/12 18:59:38;;;;;;;6.20;4.60;;;12.40;18.10;;;;;;8366857;28;20268;-67
2022/09/12 19:03:38;;;;;;;4.33;3.90;;;12.50;99.90;;;;;;8362465;28;20216;-66
2022/09/12 19:07:40;;;;;;;4.80;4.33;;;12.40;99.90;;;;;;8364482;28;20268;-68
2022/09/12 19:11:48;;;;;;;4.10;3.70;;;12.30;99.90;;;;;;8363288;28;20208;-67
2022/09/12 19:15:49;;;;;;;5.67;4.97;;;12.20;99.90;;;;;;8363226;28;20210;-67
2022/09/12 19:19:50;;;;;;;4.93;4.20;;;12.20;99.90;;;;;;8363753;28;20220;-67
2022/09/12 19:23:52;;;;;;;4.67;3.83;;;12.10;99.90;;;;;;8374347;28;20185;-67
2022/09/12 19:27:54;;;;;;;4.77;3.40;;;12.00;99.90;;;;;;8365464;28;20280;-66
2022/09/12 19:31:56;;;;;;;4.10;3.20;;;11.80;99.90;;;;;;8362243;28;20272;-67
2022/09/12 19:36:02;;;;;;;4.07;3.67;;;11.70;99.90;;;;;;8367322;28;20182;-68
2022/09/12 19:40:05;;;;;;;5.83;4.87;;;11.60;99.90;;;;;;8360820;28;20216;-67
2022/09/12 19:44:06;;;;;;;5.23;4.13;;;11.60;99.90;;;;;;8368339;28;20188;-67
2022/09/12 19:48:07;;;;;;;4.00;3.60;;;11.50;99.90;;;;;;8363956;28;20448;-67
2022/09/12 19:52:08;;;;;;;4.90;4.07;;;11.40;99.90;;;;;;8367907;28;20189;-67
2022/09/12 19:56:11;;;;;;;5.10;4.60;;;11.30;99.90;;;;;;8366139;28;20352;-67
2022/09/12 20:00:13;;;;;;;3.40;3.10;;;11.30;99.90;;;;;;8363450;28;20292;-67
2022/09/12 20:04:13;;;;;;;4.13;3.70;;;11.20;99.90;;;;;;8362772;28;20177;-68
2022/09/12 20:08:14;;;;;;;5.27;3.60;;;11.10;99.90;;;;;;8362939;28;20190;-68
2022/09/12 20:12:15;;;;;;;4.30;3.60;;;11.00;99.90;;;;;;8360909;28;20536;-68
2022/09/12 20:16:24;;;;;;;4.30;3.90;;;10.90;99.90;;;;;;8357888;28;20188;-68
2022/09/12 20:20:25;;;;;;;6.33;3.80;;;10.80;99.90;;;;;;8367654;28;20212;-68
2022/09/12 20:24:26;;;;;;;4.43;4.03;;;10.80;99.90;;;;;;8363654;28;20279;-68
2022/09/12 20:28:27;;;;;;;4.80;4.27;;;10.70;99.90;;;;;;8362637;28;20184;-67
2022/09/12 20:32:28;;;;;;;5.77;5.17;;;10.60;99.90;;;;;;8370434;28;20197;-68
2022/09/12 20:36:29;;;;;;;5.30;4.67;;;10.60;99.90;;;;;;8363051;28;20278;-67
2022/09/12 20:40:30;;;;;;;5.53;5.00;;;10.50;99.90;;;;;;8366570;28;20185;-68
2022/09/12 20:44:30;;;;;;;6.23;4.60;;;10.50;99.90;;;;;;8373975;28;20199;-68
2022/09/12 20:48:31;;;;;;;6.03;4.80;;;10.40;99.90;;;;;;8372932;28;20220;-68
2022/09/12 20:52:32;;;;;;;5.37;4.77;;;10.30;99.90;;;;;;8369156;28;20791;-68
2022/09/12 20:56:35;;;;;;;5.33;4.83;;;10.30;99.90;;;;;;8370754;28;20193;-68
2022/09/12 21:00:37;;;;;;;5.67;5.07;;;10.20;99.90;;;;;;8370902;28;20249;-68
2022/09/12 21:04:38;;;;;;;5.23;4.70;;;10.20;99.90;;;;;;8365879;28;20506;-68
2022/09/12 21:08:39;;;;;;;6.33;4.83;;;10.10;99.90;;;;;;8369384;28;20220;-67
2022/09/12 21:12:40;;;;;;;5.57;5.00;;;10.10;99.90;;;;;;8369171;28;20234;-68
2022/09/12 21:16:41;;;;;;;7.37;5.20;;;10.00;99.90;;;;;;8368512;28;20196;-68